sensor_id;sensor_type;location;lat;lon;timestamp;temperature;humidity
63202;DHT22;49296;48.188;11.566;2022-12-07T00:00:18;3.53;80.26
63202;DHT22;49296;48.188;11.566;2022-12-07T00:02:44;3.62;80.41
63202;DHT22;49296;48.188;11.566;2022-12-07T00:05:11;3.86;79.76
63202;DHT22;49296;48.188;11.566;2022-12-07T00:07:38;3.98;79.32
63202;DHT22;49296;48.188;11.566;2022-12-07T00:10:06;3.88;79.47
63202;DHT22;49296;48.188;11.566;2022-12-07T00:12:32;3.91;80.70
63202;DHT22;49296;48.188;11.566;2022-12-07T00:14:59;4.11;80.30
63202;DHT22;49296;48.188;11.566;2022-12-07T00:17:25;3.87;80.29
63202;DHT22;49296;48.188;11.566;2022-12-07T00:19:51;4.01;80.67
63202;DHT22;49296;48.188;11.566;2022-12-07T00:22:18;4.18;79.90
63202;DHT22;49296;48.188;11.566;2022-12-07T00:24:46;4.15;79.15
63202;DHT22;49296;48.188;11.566;2022-12-07T00:27:12;4.26;79.51
63202;DHT22;49296;48.188;11.566;2022-12-07T00:29:39;4.48;78.53
63202;DHT22;49296;48.188;11.566;2022-12-07T00:32:05;4.29;78.84
63202;DHT22;49296;48.188;11.566;2022-12-07T00:34:32;4.18;79.42
63202;DHT22;49296;48.188;11.566;2022-12-07T00:36:58;4.38;78.33
63202;DHT22;49296;48.188;11.566;2022-12-07T00:39:24;4.26;78.23
63202;DHT22;49296;48.188;11.566;2022-12-07T00:41:52;4.46;77.91
63202;DHT22;49296;48.188;11.566;2022-12-07T00:44:18;4.35;77.58
63202;DHT22;49296;48.188;11.566;2022-12-07T00:46:45;3.94;78.47
63202;DHT22;49296;48.188;11.566;2022-12-07T00:49:11;3.88;78.59
63202;DHT22;49296;48.188;11.566;2022-12-07T00:51:38;3.84;79.13
63202;DHT22;49296;48.188;11.566;2022-12-07T00:54:04;3.72;79.52
63202;DHT22;49296;48.188;11.566;2022-12-07T00:56:31;3.99;78.84
63202;DHT22;49296;48.188;11.566;2022-12-07T00:58:59;3.83;79.38
63202;DHT22;49296;48.188;11.566;2022-12-07T01:01:27;3.79;78.84
63202;DHT22;49296;48.188;11.566;2022-12-07T01:03:54;3.51;79.85
63202;DHT22;49296;48.188;11.566;2022-12-07T01:06:21;3.43;80.16
63202;DHT22;49296;48.188;11.566;2022-12-07T01:08:47;3.42;80.45
63202;DHT22;49296;48.188;11.566;2022-12-07T01:11:14;3.52;80.23
63202;DHT22;49296;48.188;11.566;2022-12-07T01:13:41;3.66;79.81
63202;DHT22;49296;48.188;11.566;2022-12-07T01:16:10;3.88;79.35
63202;DHT22;49296;48.188;11.566;2022-12-07T01:18:37;3.93;78.82
63202;DHT22;49296;48.188;11.566;2022-12-07T01:21:04;3.84;79.35
63202;DHT22;49296;48.188;11.566;2022-12-07T01:23:31;3.60;79.71
63202;DHT22;49296;48.188;11.566;2022-12-07T01:25:58;3.59;79.99
63202;DHT22;49296;48.188;11.566;2022-12-07T01:28:25;3.59;80.23
63202;DHT22;49296;48.188;11.566;2022-12-07T01:30:56;3.35;80.70
63202;DHT22;49296;48.188;11.566;2022-12-07T01:33:24;3.34;81.03
63202;DHT22;49296;48.188;11.566;2022-12-07T01:35:50;3.31;81.23
63202;DHT22;49296;48.188;11.566;2022-12-07T01:38:16;3.32;81.15
63202;DHT22;49296;48.188;11.566;2022-12-07T01:40:43;3.25;81.32
63202;DHT22;49296;48.188;11.566;2022-12-07T01:43:13;3.18;81.69
63202;DHT22;49296;48.188;11.566;2022-12-07T01:45:40;3.25;81.39
63202;DHT22;49296;48.188;11.566;2022-12-07T01:50:35;3.62;80.44
63202;DHT22;49296;48.188;11.566;2022-12-07T01:53:02;3.53;80.15
63202;DHT22;49296;48.188;11.566;2022-12-07T01:55:29;3.52;80.29
63202;DHT22;49296;48.188;11.566;2022-12-07T01:57:56;3.36;80.76
63202;DHT22;49296;48.188;11.566;2022-12-07T02:00:23;3.39;80.90
63202;DHT22;49296;48.188;11.566;2022-12-07T02:02:51;3.66;80.07
63202;DHT22;49296;48.188;11.566;2022-12-07T02:05:18;3.77;79.98
63202;DHT22;49296;48.188;11.566;2022-12-07T02:07:46;3.98;79.44
63202;DHT22;49296;48.188;11.566;2022-12-07T02:10:14;4.18;78.89
63202;DHT22;49296;48.188;11.566;2022-12-07T02:12:41;4.32;78.54
63202;DHT22;49296;48.188;11.566;2022-12-07T02:15:08;4.32;78.30
63202;DHT22;49296;48.188;11.566;2022-12-07T02:17:36;4.50;77.84
63202;DHT22;49296;48.188;11.566;2022-12-07T02:20:13;4.60;77.60
63202;DHT22;49296;48.188;11.566;2022-12-07T02:25:32;3.48;80.28
63202;DHT22;49296;48.188;11.566;2022-12-07T02:28:04;3.52;80.79
63202;DHT22;49296;48.188;11.566;2022-12-07T02:30:33;3.64;80.67
63202;DHT22;49296;48.188;11.566;2022-12-07T02:33:02;3.62;80.08
63202;DHT22;49296;48.188;11.566;2022-12-07T02:35:30;3.52;80.50
63202;DHT22;49296;48.188;11.566;2022-12-07T02:41:02;3.43;80.73
63202;DHT22;49296;48.188;11.566;2022-12-07T02:43:30;3.42;80.88
63202;DHT22;49296;48.188;11.566;2022-12-07T02:45:59;3.51;81.06
63202;DHT22;49296;48.188;11.566;2022-12-07T02:48:27;3.67;80.22
63202;DHT22;49296;48.188;11.566;2022-12-07T02:50:54;3.88;79.68
63202;DHT22;49296;48.188;11.566;2022-12-07T02:53:31;4.07;78.97
63202;DHT22;49296;48.188;11.566;2022-12-07T02:55:58;4.01;78.69
63202;DHT22;49296;48.188;11.566;2022-12-07T02:58:28;4.05;78.73
63202;DHT22;49296;48.188;11.566;2022-12-07T03:01:02;4.18;78.42
63202;DHT22;49296;48.188;11.566;2022-12-07T03:03:30;3.98;78.53
63202;DHT22;49296;48.188;11.566;2022-12-07T03:05:59;3.99;78.79
63202;DHT22;49296;48.188;11.566;2022-12-07T03:08:30;3.94;78.95
63202;DHT22;49296;48.188;11.566;2022-12-07T03:10:58;3.48;80.14
63202;DHT22;49296;48.188;11.566;2022-12-07T03:13:27;3.17;80.79
63202;DHT22;49296;48.188;11.566;2022-12-07T03:15:55;3.35;80.88
63202;DHT22;49296;48.188;11.566;2022-12-07T03:18:25;3.55;80.45
63202;DHT22;49296;48.188;11.566;2022-12-07T03:20:54;3.58;80.07
63202;DHT22;49296;48.188;11.566;2022-12-07T03:23:22;3.60;79.89
63202;DHT22;49296;48.188;11.566;2022-12-07T03:25:50;3.49;80.03
63202;DHT22;49296;48.188;11.566;2022-12-07T03:28:22;3.39;80.52
63202;DHT22;49296;48.188;11.566;2022-12-07T03:30:51;3.32;80.79
63202;DHT22;49296;48.188;11.566;2022-12-07T03:33:19;3.32;80.87
63202;DHT22;49296;48.188;11.566;2022-12-07T03:35:49;3.25;81.03
63202;DHT22;49296;48.188;11.566;2022-12-07T03:38:17;3.45;80.63
63202;DHT22;49296;48.188;11.566;2022-12-07T03:40:47;3.28;80.75
63202;DHT22;49296;48.188;11.566;2022-12-07T03:43:16;3.22;81.37
63202;DHT22;49296;48.188;11.566;2022-12-07T03:45:43;3.22;81.49
63202;DHT22;49296;48.188;11.566;2022-12-07T03:48:14;3.21;81.08
63202;DHT22;49296;48.188;11.566;2022-12-07T03:50:48;3.11;81.65
63202;DHT22;49296;48.188;11.566;2022-12-07T03:53:18;3.08;81.90
63202;DHT22;49296;48.188;11.566;2022-12-07T03:55:45;3.07;81.52
63202;DHT22;49296;48.188;11.566;2022-12-07T03:58:14;2.97;81.72
63202;DHT22;49296;48.188;11.566;2022-12-07T04:00:41;3.07;81.68
63202;DHT22;49296;48.188;11.566;2022-12-07T04:03:07;2.96;81.90
63202;DHT22;49296;48.188;11.566;2022-12-07T04:05:34;3.01;81.84
63202;DHT22;49296;48.188;11.566;2022-12-07T04:08:00;3.10;81.39
63202;DHT22;49296;48.188;11.566;2022-12-07T04:10:28;3.29;81.00
63202;DHT22;49296;48.188;11.566;2022-12-07T04:12:54;3.42;80.66
63202;DHT22;49296;48.188;11.566;2022-12-07T04:15:21;3.48;80.80
63202;DHT22;49296;48.188;11.566;2022-12-07T04:17:47;3.55;80.54
63202;DHT22;49296;48.188;11.566;2022-12-07T04:20:14;3.74;80.11
63202;DHT22;49296;48.188;11.566;2022-12-07T04:22:40;3.91;79.36
63202;DHT22;49296;48.188;11.566;2022-12-07T04:25:07;3.87;79.23
63202;DHT22;49296;48.188;11.566;2022-12-07T04:27:34;3.69;79.91
63202;DHT22;49296;48.188;11.566;2022-12-07T04:30:01;3.81;79.69
63202;DHT22;49296;48.188;11.566;2022-12-07T04:32:28;3.86;79.58
63202;DHT22;49296;48.188;11.566;2022-12-07T04:34:54;3.94;79.37
63202;DHT22;49296;48.188;11.566;2022-12-07T04:37:20;3.73;79.90
63202;DHT22;49296;48.188;11.566;2022-12-07T04:39:47;3.62;80.54
63202;DHT22;49296;48.188;11.566;2022-12-07T04:42:13;3.34;81.54
63202;DHT22;49296;48.188;11.566;2022-12-07T04:44:41;3.15;82.44
63202;DHT22;49296;48.188;11.566;2022-12-07T04:47:08;3.24;82.45
63202;DHT22;49296;48.188;11.566;2022-12-07T04:49:34;3.35;82.29
63202;DHT22;49296;48.188;11.566;2022-12-07T04:52:00;3.42;82.35
63202;DHT22;49296;48.188;11.566;2022-12-07T04:54:27;3.11;83.17
63202;DHT22;49296;48.188;11.566;2022-12-07T04:56:53;3.05;83.66
63202;DHT22;49296;48.188;11.566;2022-12-07T04:59:20;3.00;83.84
63202;DHT22;49296;48.188;11.566;2022-12-07T05:01:48;2.73;84.51
63202;DHT22;49296;48.188;11.566;2022-12-07T05:04:14;2.82;84.46
63202;DHT22;49296;48.188;11.566;2022-12-07T05:06:42;2.66;85.06
63202;DHT22;49296;48.188;11.566;2022-12-07T05:09:09;2.83;84.83
63202;DHT22;49296;48.188;11.566;2022-12-07T05:11:36;3.15;84.03
63202;DHT22;49296;48.188;11.566;2022-12-07T05:14:06;2.99;83.89
63202;DHT22;49296;48.188;11.566;2022-12-07T05:16:33;2.87;84.57
63202;DHT22;49296;48.188;11.566;2022-12-07T05:19:00;2.93;84.28
63202;DHT22;49296;48.188;11.566;2022-12-07T05:21:27;3.08;83.80
63202;DHT22;49296;48.188;11.566;2022-12-07T05:23:53;2.97;84.26
63202;DHT22;49296;48.188;11.566;2022-12-07T05:26:20;2.91;84.08
63202;DHT22;49296;48.188;11.566;2022-12-07T05:28:49;2.73;84.53
63202;DHT22;49296;48.188;11.566;2022-12-07T05:31:15;2.73;84.83
63202;DHT22;49296;48.188;11.566;2022-12-07T05:33:42;2.56;84.94
63202;DHT22;49296;48.188;11.566;2022-12-07T05:36:10;2.52;85.13
63202;DHT22;49296;48.188;11.566;2022-12-07T05:38:36;2.65;84.89
63202;DHT22;49296;48.188;11.566;2022-12-07T05:41:03;2.62;84.56
63202;DHT22;49296;48.188;11.566;2022-12-07T05:43:30;2.53;84.47
63202;DHT22;49296;48.188;11.566;2022-12-07T05:45:56;2.58;84.82
63202;DHT22;49296;48.188;11.566;2022-12-07T05:48:23;2.62;84.27
63202;DHT22;49296;48.188;11.566;2022-12-07T05:50:49;2.65;84.59
63202;DHT22;49296;48.188;11.566;2022-12-07T05:53:17;2.87;84.19
63202;DHT22;49296;48.188;11.566;2022-12-07T05:55:44;2.80;83.57
63202;DHT22;49296;48.188;11.566;2022-12-07T05:58:10;2.89;83.81
63202;DHT22;49296;48.188;11.566;2022-12-07T06:00:53;2.72;84.01
63202;DHT22;49296;48.188;11.566;2022-12-07T06:03:20;2.73;83.83
63202;DHT22;49296;48.188;11.566;2022-12-07T06:05:46;2.63;84.04
63202;DHT22;49296;48.188;11.566;2022-12-07T06:08:13;2.62;84.01
63202;DHT22;49296;48.188;11.566;2022-12-07T06:10:41;2.73;83.93
63202;DHT22;49296;48.188;11.566;2022-12-07T06:13:08;2.91;83.41
63202;DHT22;49296;48.188;11.566;2022-12-07T06:15:35;3.04;83.03
63202;DHT22;49296;48.188;11.566;2022-12-07T06:18:01;3.34;82.26
63202;DHT22;49296;48.188;11.566;2022-12-07T06:20:27;3.29;82.01
63202;DHT22;49296;48.188;11.566;2022-12-07T06:22:54;3.25;81.86
63202;DHT22;49296;48.188;11.566;2022-12-07T06:25:20;3.05;82.40
63202;DHT22;49296;48.188;11.566;2022-12-07T06:27:48;3.24;82.26
63202;DHT22;49296;48.188;11.566;2022-12-07T06:30:15;3.03;82.49
63202;DHT22;49296;48.188;11.566;2022-12-07T06:32:41;3.19;82.16
63202;DHT22;49296;48.188;11.566;2022-12-07T06:35:07;3.03;82.64
63202;DHT22;49296;48.188;11.566;2022-12-07T06:37:34;2.93;82.58
63202;DHT22;49296;48.188;11.566;2022-12-07T06:40:00;3.15;82.54
63202;DHT22;49296;48.188;11.566;2022-12-07T06:42:27;3.18;82.28
63202;DHT22;49296;48.188;11.566;2022-12-07T06:44:55;3.46;81.43
63202;DHT22;49296;48.188;11.566;2022-12-07T06:47:22;3.32;81.45
63202;DHT22;49296;48.188;11.566;2022-12-07T06:49:48;3.24;81.17
63202;DHT22;49296;48.188;11.566;2022-12-07T06:52:15;3.27;81.32
63202;DHT22;49296;48.188;11.566;2022-12-07T06:54:41;3.21;81.08
63202;DHT22;49296;48.188;11.566;2022-12-07T06:57:07;3.00;81.86
63202;DHT22;49296;48.188;11.566;2022-12-07T06:59:34;2.90;82.08
63202;DHT22;49296;48.188;11.566;2022-12-07T07:02:02;3.17;81.76
63202;DHT22;49296;48.188;11.566;2022-12-07T07:04:28;3.39;80.98
63202;DHT22;49296;48.188;11.566;2022-12-07T07:06:54;3.38;81.58
63202;DHT22;49296;48.188;11.566;2022-12-07T07:09:21;3.21;81.42
63202;DHT22;49296;48.188;11.566;2022-12-07T07:11:47;3.39;81.06
63202;DHT22;49296;48.188;11.566;2022-12-07T07:14:14;3.42;80.63
63202;DHT22;49296;48.188;11.566;2022-12-07T07:16:44;3.32;80.88
63202;DHT22;49296;48.188;11.566;2022-12-07T07:19:11;3.31;80.87
63202;DHT22;49296;48.188;11.566;2022-12-07T07:21:38;3.24;80.86
63202;DHT22;49296;48.188;11.566;2022-12-07T07:24:05;3.21;80.88
63202;DHT22;49296;48.188;11.566;2022-12-07T07:26:31;3.12;81.08
63202;DHT22;49296;48.188;11.566;2022-12-07T07:28:57;3.07;80.95
63202;DHT22;49296;48.188;11.566;2022-12-07T07:31:24;3.07;81.22
63202;DHT22;49296;48.188;11.566;2022-12-07T07:33:50;3.18;81.19
63202;DHT22;49296;48.188;11.566;2022-12-07T07:36:19;3.15;81.11
63202;DHT22;49296;48.188;11.566;2022-12-07T07:38:45;3.35;80.60
63202;DHT22;49296;48.188;11.566;2022-12-07T07:41:12;3.28;80.29
63202;DHT22;49296;48.188;11.566;2022-12-07T07:43:38;3.40;80.04
63202;DHT22;49296;48.188;11.566;2022-12-07T07:46:05;3.34;80.17
63202;DHT22;49296;48.188;11.566;2022-12-07T07:48:31;3.43;80.14
63202;DHT22;49296;48.188;11.566;2022-12-07T07:50:58;3.56;79.61
63202;DHT22;49296;48.188;11.566;2022-12-07T07:53:25;3.43;79.99
63202;DHT22;49296;48.188;11.566;2022-12-07T07:55:52;3.46;79.60
63202;DHT22;49296;48.188;11.566;2022-12-07T07:58:19;3.40;79.72
63202;DHT22;49296;48.188;11.566;2022-12-07T08:00:46;3.38;79.27
63202;DHT22;49296;48.188;11.566;2022-12-07T08:03:12;3.35;79.69
63202;DHT22;49296;48.188;11.566;2022-12-07T08:05:39;3.49;78.56
63202;DHT22;49296;48.188;11.566;2022-12-07T08:08:05;3.27;79.47
63202;DHT22;49296;48.188;11.566;2022-12-07T08:10:33;3.22;79.11
63202;DHT22;49296;48.188;11.566;2022-12-07T08:13:00;3.24;79.35
63202;DHT22;49296;48.188;11.566;2022-12-07T08:15:39;3.34;78.79
63202;DHT22;49296;48.188;11.566;2022-12-07T08:18:06;3.24;79.18
63202;DHT22;49296;48.188;11.566;2022-12-07T08:20:33;3.42;79.45
63202;DHT22;49296;48.188;11.566;2022-12-07T08:22:59;3.35;78.94
63202;DHT22;49296;48.188;11.566;2022-12-07T08:25:26;3.48;78.82
63202;DHT22;49296;48.188;11.566;2022-12-07T08:27:54;3.46;79.10
63202;DHT22;49296;48.188;11.566;2022-12-07T08:30:20;3.36;79.49
63202;DHT22;49296;48.188;11.566;2022-12-07T08:32:47;3.25;79.93
63202;DHT22;49296;48.188;11.566;2022-12-07T08:35:14;3.21;79.91
63202;DHT22;49296;48.188;11.566;2022-12-07T08:37:41;3.36;79.90
63202;DHT22;49296;48.188;11.566;2022-12-07T08:40:08;3.48;79.42
63202;DHT22;49296;48.188;11.566;2022-12-07T08:42:35;3.64;79.07
63202;DHT22;49296;48.188;11.566;2022-12-07T08:45:07;3.59;78.20
63202;DHT22;49296;48.188;11.566;2022-12-07T08:47:34;3.70;78.46
63202;DHT22;49296;48.188;11.566;2022-12-07T08:50:01;3.76;77.83
63202;DHT22;49296;48.188;11.566;2022-12-07T08:52:28;3.59;78.38
63202;DHT22;49296;48.188;11.566;2022-12-07T08:54:55;3.62;79.00
63202;DHT22;49296;48.188;11.566;2022-12-07T08:57:22;3.64;78.71
63202;DHT22;49296;48.188;11.566;2022-12-07T08:59:49;3.60;78.92
63202;DHT22;49296;48.188;11.566;2022-12-07T09:02:17;3.74;78.15
63202;DHT22;49296;48.188;11.566;2022-12-07T09:04:43;3.73;77.97
63202;DHT22;49296;48.188;11.566;2022-12-07T09:07:10;3.74;77.85
63202;DHT22;49296;48.188;11.566;2022-12-07T09:09:36;3.80;77.31
63202;DHT22;49296;48.188;11.566;2022-12-07T09:12:03;3.69;77.68
63202;DHT22;49296;48.188;11.566;2022-12-07T09:14:30;3.77;76.96
63202;DHT22;49296;48.188;11.566;2022-12-07T09:17:04;3.72;76.89
63202;DHT22;49296;48.188;11.566;2022-12-07T09:19:32;3.69;77.14
63202;DHT22;49296;48.188;11.566;2022-12-07T09:21:58;3.76;76.56
63202;DHT22;49296;48.188;11.566;2022-12-07T09:24:25;3.76;76.40
63202;DHT22;49296;48.188;11.566;2022-12-07T09:26:51;3.69;76.19
63202;DHT22;49296;48.188;11.566;2022-12-07T09:29:18;3.64;76.03
63202;DHT22;49296;48.188;11.566;2022-12-07T09:31:44;3.74;76.11
63202;DHT22;49296;48.188;11.566;2022-12-07T09:34:11;3.70;75.60
63202;DHT22;49296;48.188;11.566;2022-12-07T09:36:39;3.70;75.03
63202;DHT22;49296;48.188;11.566;2022-12-07T09:39:05;3.81;75.58
63202;DHT22;49296;48.188;11.566;2022-12-07T09:41:32;4.02;75.15
63202;DHT22;49296;48.188;11.566;2022-12-07T09:44:02;4.04;75.07
63202;DHT22;49296;48.188;11.566;2022-12-07T09:49:28;3.98;74.86
63202;DHT22;49296;48.188;11.566;2022-12-07T09:52:00;3.95;74.56
63202;DHT22;49296;48.188;11.566;2022-12-07T09:54:27;4.01;74.72
63202;DHT22;49296;48.188;11.566;2022-12-07T09:56:54;3.90;75.10
63202;DHT22;49296;48.188;11.566;2022-12-07T09:59:21;3.95;75.20
63202;DHT22;49296;48.188;11.566;2022-12-07T10:01:48;4.12;74.14
63202;DHT22;49296;48.188;11.566;2022-12-07T10:04:15;3.99;74.21
63202;DHT22;49296;48.188;11.566;2022-12-07T10:06:43;4.04;73.33
63202;DHT22;49296;48.188;11.566;2022-12-07T10:09:12;4.08;73.22
63202;DHT22;49296;48.188;11.566;2022-12-07T10:14:31;4.22;73.09
63202;DHT22;49296;48.188;11.566;2022-12-07T10:16:58;4.19;73.47
63202;DHT22;49296;48.188;11.566;2022-12-07T10:19:25;4.22;73.48
63202;DHT22;49296;48.188;11.566;2022-12-07T10:22:01;4.29;73.61
63202;DHT22;49296;48.188;11.566;2022-12-07T10:24:30;4.21;73.08
63202;DHT22;49296;48.188;11.566;2022-12-07T10:26:56;4.41;72.88
63202;DHT22;49296;48.188;11.566;2022-12-07T10:29:24;4.36;73.58
63202;DHT22;49296;48.188;11.566;2022-12-07T10:31:51;4.32;73.68
63202;DHT22;49296;48.188;11.566;2022-12-07T10:34:21;4.19;73.16
63202;DHT22;49296;48.188;11.566;2022-12-07T10:36:49;4.36;72.89
63202;DHT22;49296;48.188;11.566;2022-12-07T10:39:16;4.43;72.01
63202;DHT22;49296;48.188;11.566;2022-12-07T10:41:53;4.33;71.93
63202;DHT22;49296;48.188;11.566;2022-12-07T10:44:21;4.31;72.15
63202;DHT22;49296;48.188;11.566;2022-12-07T10:46:51;4.21;71.67
63202;DHT22;49296;48.188;11.566;2022-12-07T10:49:28;4.39;71.77
63202;DHT22;49296;48.188;11.566;2022-12-07T10:51:59;4.41;70.84
63202;DHT22;49296;48.188;11.566;2022-12-07T10:54:32;4.35;70.79
63202;DHT22;49296;48.188;11.566;2022-12-07T10:57:09;4.43;69.80
63202;DHT22;49296;48.188;11.566;2022-12-07T11:02:35;4.43;69.35
63202;DHT22;49296;48.188;11.566;2022-12-07T11:05:06;4.45;69.54
63202;DHT22;49296;48.188;11.566;2022-12-07T11:07:41;4.49;69.54
63202;DHT22;49296;48.188;11.566;2022-12-07T11:10:10;4.59;68.69
63202;DHT22;49296;48.188;11.566;2022-12-07T11:12:43;4.57;69.04
63202;DHT22;49296;48.188;11.566;2022-12-07T11:15:17;4.67;68.60
63202;DHT22;49296;48.188;11.566;2022-12-07T11:17:47;4.78;67.65
63202;DHT22;49296;48.188;11.566;2022-12-07T11:20:19;4.85;66.65
63202;DHT22;49296;48.188;11.566;2022-12-07T11:22:50;4.78;66.83
63202;DHT22;49296;48.188;11.566;2022-12-07T11:25:20;4.87;66.94
63202;DHT22;49296;48.188;11.566;2022-12-07T11:27:51;4.98;67.02
63202;DHT22;49296;48.188;11.566;2022-12-07T11:30:22;4.92;65.34
63202;DHT22;49296;48.188;11.566;2022-12-07T11:32:56;4.80;64.75
63202;DHT22;49296;48.188;11.566;2022-12-07T11:35:28;4.81;64.84
63202;DHT22;49296;48.188;11.566;2022-12-07T11:37:57;4.74;66.41
63202;DHT22;49296;48.188;11.566;2022-12-07T11:40:26;4.78;65.90
63202;DHT22;49296;48.188;11.566;2022-12-07T11:42:55;4.97;66.17
63202;DHT22;49296;48.188;11.566;2022-12-07T11:45:26;5.14;66.02
63202;DHT22;49296;48.188;11.566;2022-12-07T11:47:53;5.04;64.81
63202;DHT22;49296;48.188;11.566;2022-12-07T11:50:25;4.97;65.36
63202;DHT22;49296;48.188;11.566;2022-12-07T11:52:53;5.14;66.11
63202;DHT22;49296;48.188;11.566;2022-12-07T11:55:21;5.23;65.74
63202;DHT22;49296;48.188;11.566;2022-12-07T11:57:52;5.14;64.94
63202;DHT22;49296;48.188;11.566;2022-12-07T12:00:22;4.73;64.99
63202;DHT22;49296;48.188;11.566;2022-12-07T12:02:49;4.98;65.17
63202;DHT22;49296;48.188;11.566;2022-12-07T12:05:18;5.09;64.57
63202;DHT22;49296;48.188;11.566;2022-12-07T12:07:46;5.19;64.91
63202;DHT22;49296;48.188;11.566;2022-12-07T12:10:16;4.89;64.78
63202;DHT22;49296;48.188;11.566;2022-12-07T12:12:47;4.80;64.92
63202;DHT22;49296;48.188;11.566;2022-12-07T12:15:25;4.91;64.54
63202;DHT22;49296;48.188;11.566;2022-12-07T12:18:13;4.80;65.10
63202;DHT22;49296;48.188;11.566;2022-12-07T12:20:44;4.91;65.55
63202;DHT22;49296;48.188;11.566;2022-12-07T12:23:12;4.97;65.08
63202;DHT22;49296;48.188;11.566;2022-12-07T12:25:42;4.84;65.33
63202;DHT22;49296;48.188;11.566;2022-12-07T12:28:18;4.78;65.04
63202;DHT22;49296;48.188;11.566;2022-12-07T12:30:46;4.85;65.86
63202;DHT22;49296;48.188;11.566;2022-12-07T12:33:29;5.14;64.86
63202;DHT22;49296;48.188;11.566;2022-12-07T12:38:48;4.83;65.62
63202;DHT22;49296;48.188;11.566;2022-12-07T12:43:56;5.11;65.76
63202;DHT22;49296;48.188;11.566;2022-12-07T12:49:17;5.11;63.91
63202;DHT22;49296;48.188;11.566;2022-12-07T12:51:56;5.39;63.93
63202;DHT22;49296;48.188;11.566;2022-12-07T12:54:24;5.56;63.03
63202;DHT22;49296;48.188;11.566;2022-12-07T12:56:52;5.49;63.27
63202;DHT22;49296;48.188;11.566;2022-12-07T12:59:22;5.60;62.75
63202;DHT22;49296;48.188;11.566;2022-12-07T13:01:49;5.73;61.94
63202;DHT22;49296;48.188;11.566;2022-12-07T13:04:28;5.61;62.19
63202;DHT22;49296;48.188;11.566;2022-12-07T13:06:56;5.66;63.03
63202;DHT22;49296;48.188;11.566;2022-12-07T13:09:24;5.58;63.26
63202;DHT22;49296;48.188;11.566;2022-12-07T13:11:56;5.78;63.23
63202;DHT22;49296;48.188;11.566;2022-12-07T13:17:09;5.91;62.30
63202;DHT22;49296;48.188;11.566;2022-12-07T13:22:39;5.92;61.92
63202;DHT22;49296;48.188;11.566;2022-12-07T13:25:07;5.97;61.59
63202;DHT22;49296;48.188;11.566;2022-12-07T13:27:35;6.03;61.88
63202;DHT22;49296;48.188;11.566;2022-12-07T13:30:06;6.02;62.66
63202;DHT22;49296;48.188;11.566;2022-12-07T13:32:35;5.99;63.01
63202;DHT22;49296;48.188;11.566;2022-12-07T13:37:44;5.81;62.78
63202;DHT22;49296;48.188;11.566;2022-12-07T13:40:16;5.51;63.33
63202;DHT22;49296;48.188;11.566;2022-12-07T13:42:43;5.67;63.93
63202;DHT22;49296;48.188;11.566;2022-12-07T13:45:17;5.92;63.22
63202;DHT22;49296;48.188;11.566;2022-12-07T13:47:47;5.63;63.62
63202;DHT22;49296;48.188;11.566;2022-12-07T13:50:21;5.75;63.80
63202;DHT22;49296;48.188;11.566;2022-12-07T13:52:50;5.74;63.25
63202;DHT22;49296;48.188;11.566;2022-12-07T13:55:16;5.39;64.42
63202;DHT22;49296;48.188;11.566;2022-12-07T13:57:44;5.51;64.31
63202;DHT22;49296;48.188;11.566;2022-12-07T14:00:13;5.47;64.01
63202;DHT22;49296;48.188;11.566;2022-12-07T14:02:53;5.46;63.83
63202;DHT22;49296;48.188;11.566;2022-12-07T14:05:23;5.40;64.49
63202;DHT22;49296;48.188;11.566;2022-12-07T14:07:55;5.29;64.30
63202;DHT22;49296;48.188;11.566;2022-12-07T14:10:23;5.16;65.28
63202;DHT22;49296;48.188;11.566;2022-12-07T14:12:50;5.47;65.04
63202;DHT22;49296;48.188;11.566;2022-12-07T14:15:19;5.49;65.06
63202;DHT22;49296;48.188;11.566;2022-12-07T14:17:49;5.28;65.28
63202;DHT22;49296;48.188;11.566;2022-12-07T14:20:29;5.43;65.46
63202;DHT22;49296;48.188;11.566;2022-12-07T14:22:57;5.30;65.25
63202;DHT22;49296;48.188;11.566;2022-12-07T14:25:24;5.02;66.51
63202;DHT22;49296;48.188;11.566;2022-12-07T14:27:52;4.84;67.13
63202;DHT22;49296;48.188;11.566;2022-12-07T14:30:21;4.77;66.75
63202;DHT22;49296;48.188;11.566;2022-12-07T14:32:48;4.80;66.68
63202;DHT22;49296;48.188;11.566;2022-12-07T14:35:17;4.80;66.52
63202;DHT22;49296;48.188;11.566;2022-12-07T14:37:45;5.04;65.74
63202;DHT22;49296;48.188;11.566;2022-12-07T14:40:14;4.83;65.64
63202;DHT22;49296;48.188;11.566;2022-12-07T14:42:41;4.83;66.31
63202;DHT22;49296;48.188;11.566;2022-12-07T14:45:11;5.14;65.87
63202;DHT22;49296;48.188;11.566;2022-12-07T14:47:39;4.95;65.41
63202;DHT22;49296;48.188;11.566;2022-12-07T14:50:06;4.80;65.71
63202;DHT22;49296;48.188;11.566;2022-12-07T14:52:33;5.01;65.54
63202;DHT22;49296;48.188;11.566;2022-12-07T14:55:00;5.28;64.93
63202;DHT22;49296;48.188;11.566;2022-12-07T14:57:28;5.12;64.68
63202;DHT22;49296;48.188;11.566;2022-12-07T14:59:54;5.19;64.58
63202;DHT22;49296;48.188;11.566;2022-12-07T15:02:21;5.22;65.98
63202;DHT22;49296;48.188;11.566;2022-12-07T15:04:47;5.49;66.21
63202;DHT22;49296;48.188;11.566;2022-12-07T15:07:17;5.49;66.64
63202;DHT22;49296;48.188;11.566;2022-12-07T15:09:45;5.63;67.03
63202;DHT22;49296;48.188;11.566;2022-12-07T15:12:12;5.50;67.64
63202;DHT22;49296;48.188;11.566;2022-12-07T15:14:40;5.47;68.28
63202;DHT22;49296;48.188;11.566;2022-12-07T15:17:07;5.30;68.75
63202;DHT22;49296;48.188;11.566;2022-12-07T15:19:35;5.57;68.49
63202;DHT22;49296;48.188;11.566;2022-12-07T15:22:02;5.64;68.35
63202;DHT22;49296;48.188;11.566;2022-12-07T15:24:28;5.63;68.29
63202;DHT22;49296;48.188;11.566;2022-12-07T15:26:55;5.63;68.30
63202;DHT22;49296;48.188;11.566;2022-12-07T15:29:22;5.66;68.35
63202;DHT22;49296;48.188;11.566;2022-12-07T15:31:50;5.71;68.17
63202;DHT22;49296;48.188;11.566;2022-12-07T15:34:16;5.67;68.26
63202;DHT22;49296;48.188;11.566;2022-12-07T15:36:43;5.67;68.79
63202;DHT22;49296;48.188;11.566;2022-12-07T15:39:10;5.64;68.74
63202;DHT22;49296;48.188;11.566;2022-12-07T15:41:36;5.73;68.90
63202;DHT22;49296;48.188;11.566;2022-12-07T15:44:03;5.75;68.49
63202;DHT22;49296;48.188;11.566;2022-12-07T15:46:47;5.77;68.76
63202;DHT22;49296;48.188;11.566;2022-12-07T15:49:15;5.70;68.45
63202;DHT22;49296;48.188;11.566;2022-12-07T15:51:43;5.70;68.72
63202;DHT22;49296;48.188;11.566;2022-12-07T15:54:11;5.74;68.55
63202;DHT22;49296;48.188;11.566;2022-12-07T15:56:38;5.70;68.34
63202;DHT22;49296;48.188;11.566;2022-12-07T15:59:05;5.75;68.80
63202;DHT22;49296;48.188;11.566;2022-12-07T16:01:32;5.75;68.77
63202;DHT22;49296;48.188;11.566;2022-12-07T16:03:58;5.77;68.30
63202;DHT22;49296;48.188;11.566;2022-12-07T16:06:26;5.74;68.28
63202;DHT22;49296;48.188;11.566;2022-12-07T16:08:53;5.70;68.60